createdAt,value
2019-04-16T00:00:36.945Z,93.67
2019-04-16T00:03:05.778Z,93.46
2019-04-16T00:05:41.940Z,93.50
2019-04-16T00:08:27.759Z,94.36
2019-04-16T00:10:50.420Z,95.20
2019-04-16T00:13:23.410Z,94.56
2019-04-16T00:15:51.960Z,93.90
2019-04-16T00:18:20.639Z,94.97
2019-04-16T00:20:54.194Z,95.27
2019-04-16T00:23:30.720Z,95.29
2019-04-16T00:25:59.277Z,96.13
2019-04-16T00:28:30.469Z,96.71
2019-04-16T00:30:58.214Z,96.89
2019-04-16T00:33:26.712Z,96.58
2019-04-16T00:35:55.338Z,96.62
2019-04-16T00:38:24.002Z,97.71
2019-04-16T00:40:52.650Z,97.39
2019-04-16T00:43:21.140Z,97.04
2019-04-16T00:45:49.797Z,96.73
2019-04-16T00:48:18.431Z,97.92
2019-04-16T00:50:46.981Z,98.62
2019-04-16T00:53:15.514Z,99.24
2019-04-16T00:55:45.107Z,98.84
2019-04-16T00:58:14.465Z,99.69
2019-04-16T01:00:43.060Z,99.62
2019-04-16T01:03:11.758Z,100.00
2019-04-16T01:05:40.789Z,100.00
2019-04-16T01:08:09.467Z,100.00
2019-04-16T01:10:38.091Z,100.00
2019-04-16T01:13:06.644Z,100.00
2019-04-16T01:15:35.313Z,100.00
2019-04-16T01:18:04.582Z,100.00
2019-04-16T01:20:34.351Z,100.00
2019-04-16T01:23:02.951Z,100.00
2019-04-16T01:25:31.623Z,100.00
2019-04-16T01:28:01.900Z,99.95
2019-04-16T01:30:36.575Z,100.00
2019-04-16T01:33:06.867Z,100.00
2019-04-16T01:35:40.650Z,100.00
2019-04-16T01:38:27.964Z,99.98
2019-04-16T01:41:01.045Z,100.00
2019-04-16T01:43:29.543Z,100.00
2019-04-16T01:46:00.718Z,100.00
2019-04-16T01:48:28.865Z,100.00
2019-04-16T01:50:57.505Z,100.00
2019-04-16T01:53:26.156Z,100.00
2019-04-16T01:55:56.985Z,98.83
2019-04-16T01:58:25.028Z,98.45
2019-04-16T02:00:53.668Z,97.55
2019-04-16T02:03:22.397Z,97.94
2019-04-16T02:05:54.642Z,97.96
2019-04-16T02:08:21.263Z,98.04
2019-04-16T02:10:49.895Z,97.12
2019-04-16T02:13:18.536Z,96.92
2019-04-16T02:15:47.075Z,96.28
2019-04-16T02:18:16.551Z,96.27
2019-04-16T02:20:45.212Z,95.75
2019-04-16T02:23:16.733Z,95.65
2019-04-16T02:25:44.214Z,95.03
2019-04-16T02:28:12.718Z,94.50
2019-04-16T02:30:41.902Z,94.79
2019-04-16T02:33:10.397Z,93.88
2019-04-16T02:35:39.050Z,94.11
2019-04-16T02:38:12.210Z,93.75
2019-04-16T02:40:38.755Z,93.26
2019-04-16T02:43:08.280Z,93.57
2019-04-16T02:45:37.087Z,92.60
2019-04-16T02:48:05.731Z,92.23
2019-04-16T02:50:38.949Z,92.48
2019-04-16T02:53:09.193Z,91.95
2019-04-16T02:55:45.303Z,91.83
2019-04-16T02:58:15.728Z,91.67
2019-04-16T03:00:49.066Z,91.68
2019-04-16T03:03:24.911Z,91.56
2019-04-16T03:06:00.632Z,90.97
2019-04-16T03:08:26.438Z,90.58
2019-04-16T03:10:55.053Z,90.35
2019-04-16T03:13:24.048Z,90.08
2019-04-16T03:16:06.288Z,90.22
2019-04-16T03:18:40.926Z,90.63
2019-04-16T03:21:09.827Z,90.49
2019-04-16T03:23:38.467Z,90.68
2019-04-16T03:26:07.125Z,90.85
2019-04-16T03:28:35.670Z,90.99
2019-04-16T03:31:08.499Z,90.94
2019-04-16T03:33:34.677Z,90.99
2019-04-16T03:36:03.427Z,91.40
2019-04-16T03:38:36.747Z,91.54
2019-04-16T03:41:02.285Z,91.78
2019-04-16T03:43:32.783Z,91.86
2019-04-16T03:46:01.391Z,91.69
2019-04-16T03:48:29.887Z,91.94
2019-04-16T03:51:00.499Z,92.16
2019-04-16T03:53:28.911Z,92.59
2019-04-16T03:55:58.364Z,92.46
2019-04-16T03:58:27.833Z,92.73
2019-04-16T04:00:56.462Z,92.45
2019-04-16T04:03:26.161Z,91.64
2019-04-16T04:05:56.011Z,91.65
2019-04-16T04:08:25.359Z,90.80
2019-04-16T04:10:54.308Z,90.62
2019-04-16T04:13:23.188Z,90.43
2019-04-16T04:15:54.880Z,90.54
2019-04-16T04:18:22.148Z,90.73
2019-04-16T04:20:51.017Z,89.94
2019-04-16T04:23:19.740Z,88.09
2019-04-16T04:25:48.325Z,87.22
2019-04-16T04:28:19.881Z,86.75
2019-04-16T04:30:48.974Z,84.84
2019-04-16T04:33:40.914Z,84.96
2019-04-16T04:36:09.555Z,84.17
2019-04-16T04:38:39.208Z,84.13
2019-04-16T04:41:08.224Z,83.36
2019-04-16T04:43:36.764Z,83.38
2019-04-16T04:46:05.699Z,82.47
2019-04-16T04:48:34.586Z,80.54
2019-04-16T04:51:06.942Z,77.91
2019-04-16T04:53:33.510Z,74.67
2019-04-16T04:56:02.289Z,71.96
2019-04-16T04:58:33.676Z,69.50
2019-04-16T05:01:01.323Z,68.06
2019-04-16T05:03:31.573Z,67.46
2019-04-16T05:06:04.815Z,64.60
2019-04-16T05:08:33.456Z,63.43
2019-04-16T05:11:03.009Z,66.52
2019-04-16T05:13:31.803Z,68.28
2019-04-16T05:16:02.007Z,69.24
2019-04-16T05:18:30.631Z,72.00
2019-04-16T05:20:59.265Z,72.88
2019-04-16T05:23:27.908Z,73.14
2019-04-16T05:25:56.446Z,71.83
2019-04-16T05:28:24.935Z,70.55
2019-04-16T05:30:53.567Z,69.53
2019-04-16T05:33:22.242Z,70.45
2019-04-16T05:35:50.736Z,69.05
2019-04-16T05:38:20.522Z,67.27
2019-04-16T05:40:49.699Z,65.63
2019-04-16T05:43:18.385Z,65.17
2019-04-16T05:45:46.941Z,62.87
2019-04-16T05:48:15.482Z,62.04
2019-04-16T05:50:44.117Z,60.92
2019-04-16T05:53:13.607Z,62.88
2019-04-16T05:55:44.029Z,62.40
2019-04-16T05:58:12.800Z,64.14
2019-04-16T06:00:49.560Z,64.71
2019-04-16T06:03:20.978Z,66.51
2019-04-16T06:05:48.583Z,68.03
2019-04-16T06:08:17.257Z,66.90
2019-04-16T06:10:49.792Z,66.42
2019-04-16T06:13:20.393Z,65.96
2019-04-16T06:15:56.654Z,66.28
2019-04-16T06:18:43.525Z,66.12
2019-04-16T06:21:16.419Z,65.17
2019-04-16T06:23:48.228Z,64.76
2019-04-16T06:26:18.576Z,62.64
2019-04-16T06:28:55.136Z,61.81
2019-04-16T06:31:32.586Z,60.40
2019-04-16T06:34:19.011Z,56.13
2019-04-16T06:36:51.986Z,55.17
2019-04-16T06:39:22.276Z,53.02
2019-04-16T06:41:52.782Z,53.14
2019-04-16T06:44:23.222Z,54.73
2019-04-16T06:46:53.525Z,54.93
2019-04-16T06:49:40.246Z,55.61
2019-04-16T06:52:17.915Z,56.53
2019-04-16T06:54:56.810Z,57.26
2019-04-16T06:57:30.034Z,57.48
2019-04-16T07:00:16.460Z,59.25
2019-04-16T07:03:02.672Z,59.53
2019-04-16T07:05:32.959Z,59.36
2019-04-16T07:08:02.805Z,56.89
2019-04-16T07:10:44.106Z,56.26
2019-04-16T07:13:03.527Z,55.59
2019-04-16T07:15:32.166Z,53.87
2019-04-16T07:18:02.529Z,52.98
2019-04-16T07:20:31.070Z,53.43
2019-04-16T07:22:59.710Z,54.58
2019-04-16T07:25:29.589Z,54.52
2019-04-16T07:28:09.183Z,53.97
2019-04-16T07:30:45.298Z,53.93
2019-04-16T07:33:30.793Z,51.16
2019-04-16T07:36:10.320Z,47.64
2019-04-16T07:38:49.517Z,45.27
2019-04-16T07:41:35.625Z,42.38
2019-04-16T07:44:10.769Z,41.88
2019-04-16T07:46:54.442Z,41.15
2019-04-16T07:49:30.445Z,42.49
2019-04-16T07:52:18.930Z,40.75
2019-04-16T07:55:05.619Z,39.13
2019-04-16T07:57:34.314Z,38.40
2019-04-16T08:00:08.196Z,40.56
2019-04-16T08:02:33.322Z,42.51
2019-04-16T08:05:07.711Z,44.83
2019-04-16T08:07:32.074Z,43.54
2019-04-16T08:10:02.813Z,42.66
2019-04-16T08:12:31.229Z,42.64
2019-04-16T08:15:12.891Z,42.14
2019-04-16T08:17:29.991Z,40.50
2019-04-16T08:19:58.625Z,39.01
2019-04-16T08:22:27.404Z,38.24
2019-04-16T08:25:04.151Z,39.02
2019-04-16T08:27:32.777Z,39.17
2019-04-16T08:30:03.932Z,37.74
2019-04-16T08:32:31.894Z,39.47
2019-04-16T08:35:00.421Z,40.17
2019-04-16T08:37:29.060Z,38.30
2019-04-16T08:39:57.709Z,37.31
2019-04-16T08:42:29.318Z,40.50
2019-04-16T08:44:56.700Z,41.44
2019-04-16T08:47:25.330Z,41.03
2019-04-16T08:49:54.870Z,43.56
2019-04-16T08:52:23.431Z,45.97
2019-04-16T08:54:54.782Z,46.79
2019-04-16T08:57:22.562Z,46.97
2019-04-16T08:59:51.129Z,47.11
2019-04-16T09:02:19.783Z,47.95
2019-04-16T09:04:48.451Z,46.74
2019-04-16T09:07:35.234Z,45.18
2019-04-16T09:10:17.131Z,42.46
2019-04-16T09:12:40.726Z,43.69
2019-04-16T09:15:09.675Z,45.83
2019-04-16T09:17:39.871Z,46.72
2019-04-16T09:20:10.662Z,48.15
2019-04-16T09:22:48.767Z,50.42
2019-04-16T09:25:14.730Z,48.17
2019-04-16T09:27:44.986Z,46.96
2019-04-16T09:30:20.897Z,46.40
2019-04-16T09:32:51.202Z,48.92
2019-04-16T09:35:21.330Z,51.31
2019-04-16T09:37:57.361Z,51.70
2019-04-16T09:40:43.926Z,51.48
2019-04-16T09:43:17.158Z,51.46
2019-04-16T09:45:44.698Z,50.80
2019-04-16T09:48:13.296Z,49.78
2019-04-16T09:50:46.626Z,47.86
2019-04-16T09:53:12.362Z,46.60
2019-04-16T09:55:41.038Z,46.87
2019-04-16T09:58:11.340Z,45.99
2019-04-16T10:00:41.638Z,44.75
2019-04-16T10:03:11.838Z,45.22
2019-04-16T10:05:40.511Z,44.01
2019-04-16T10:08:09.557Z,43.80
2019-04-16T10:10:39.517Z,41.47
2019-04-16T10:13:08.107Z,41.21
2019-04-16T10:15:36.806Z,40.90
2019-04-16T10:18:05.518Z,40.35
2019-04-16T10:20:34.144Z,40.79
2019-04-16T10:23:04.264Z,42.49
2019-04-16T10:25:33.754Z,43.43
2019-04-16T10:28:05.077Z,43.16
2019-04-16T10:30:36.066Z,43.13
2019-04-16T10:33:04.818Z,43.59
2019-04-16T10:35:33.485Z,43.84
2019-04-16T10:38:03.625Z,43.38
2019-04-16T10:40:36.635Z,45.92
2019-04-16T10:43:07.249Z,46.47
2019-04-16T10:45:40.133Z,46.88
2019-04-16T10:48:22.240Z,47.38
2019-04-16T10:50:52.526Z,47.83
2019-04-16T10:53:38.102Z,48.49
2019-04-16T10:56:11.033Z,48.25
2019-04-16T10:58:56.382Z,48.30
2019-04-16T11:01:30.511Z,47.76
2019-04-16T11:04:11.021Z,46.66
2019-04-16T11:06:43.833Z,46.89
2019-04-16T11:09:12.581Z,45.48
2019-04-16T11:11:41.238Z,44.25
2019-04-16T11:14:09.913Z,43.65
2019-04-16T11:16:40.098Z,43.82
2019-04-16T11:19:08.798Z,44.67
2019-04-16T11:21:37.355Z,45.53
2019-04-16T11:24:05.952Z,47.55
2019-04-16T11:26:34.698Z,49.34
2019-04-16T11:29:03.491Z,52.43
2019-04-16T11:31:32.021Z,58.33
2019-04-16T11:34:00.620Z,62.32
2019-04-16T11:36:30.958Z,65.89
2019-04-16T11:38:59.783Z,67.92
2019-04-16T11:41:28.344Z,71.07
2019-04-16T11:43:56.917Z,75.59
2019-04-16T11:46:25.621Z,82.55
2019-04-16T11:48:54.285Z,83.28
2019-04-16T11:51:22.795Z,81.13
2019-04-16T11:53:51.345Z,80.38
2019-04-16T11:56:22.478Z,81.77
2019-04-16T11:58:51.574Z,80.31
2019-04-16T12:01:30.677Z,82.65
2019-04-16T12:04:00.858Z,79.82
2019-04-16T12:06:36.922Z,77.41
2019-04-16T12:09:21.858Z,78.14
2019-04-16T12:12:04.265Z,71.47
2019-04-16T12:14:42.123Z,67.98
2019-04-16T12:17:25.800Z,65.61
2019-04-16T12:20:11.461Z,63.95
2019-04-16T12:22:50.676Z,62.86
2019-04-16T12:25:20.931Z,61.02
2019-04-16T12:27:51.223Z,59.35
2019-04-16T12:30:30.519Z,59.86
2019-04-16T12:33:16.579Z,59.37
2019-04-16T12:35:46.874Z,59.98
2019-04-16T12:38:18.767Z,55.68
2019-04-16T12:40:55.302Z,55.04
2019-04-16T12:43:25.838Z,56.31
2019-04-16T12:45:56.125Z,58.42
2019-04-16T12:48:26.399Z,58.82
2019-04-16T12:51:02.658Z,58.60
2019-04-16T12:53:38.964Z,60.19
2019-04-16T12:56:15.314Z,62.33
2019-04-16T12:59:04.021Z,65.21
2019-04-16T13:01:42.908Z,66.21
2019-04-16T13:04:25.180Z,66.07
2019-04-16T13:07:07.454Z,65.58
2019-04-16T13:09:40.794Z,65.69
2019-04-16T13:12:19.997Z,68.35
2019-04-16T13:15:01.248Z,67.97
2019-04-16T13:17:31.619Z,66.11
2019-04-16T13:20:11.106Z,64.43
2019-04-16T13:22:41.364Z,62.50
2019-04-16T13:25:14.563Z,61.05
2019-04-16T13:27:47.607Z,58.72
2019-04-16T13:30:15.304Z,57.81
2019-04-16T13:32:43.937Z,54.50
2019-04-16T13:35:12.764Z,54.14
2019-04-16T13:37:41.398Z,50.99
2019-04-16T13:40:12.927Z,50.83
2019-04-16T13:42:41.631Z,51.16
2019-04-16T13:45:29.673Z,51.45
2019-04-16T13:48:14.475Z,48.98
2019-04-16T13:50:39.844Z,49.04
2019-04-16T13:53:12.038Z,48.28
2019-04-16T13:55:57.898Z,48.02
2019-04-16T13:58:36.599Z,47.36
2019-04-16T14:01:16.930Z,48.48
2019-04-16T14:03:45.533Z,48.22
2019-04-16T14:06:14.163Z,48.35
2019-04-16T14:08:42.794Z,47.88
2019-04-16T14:11:11.346Z,48.04
2019-04-16T14:13:41.952Z,47.75
2019-04-16T14:16:12.936Z,48.54
2019-04-16T14:18:42.124Z,49.13
2019-04-16T14:21:10.848Z,49.00
2019-04-16T14:23:39.356Z,48.47
2019-04-16T14:26:08.035Z,49.61
2019-04-16T14:28:51.343Z,48.91
2019-04-16T14:31:06.956Z,48.83
2019-04-16T14:33:46.249Z,49.92
2019-04-16T14:36:15.223Z,56.28
2019-04-16T14:38:45.572Z,64.87
2019-04-16T14:41:15.767Z,69.29
2019-04-16T14:43:46.290Z,66.10
2019-04-16T14:46:14.791Z,63.87
2019-04-16T14:48:46.386Z,69.02
2019-04-16T14:51:13.845Z,72.21
2019-04-16T14:53:46.866Z,70.34
2019-04-16T14:56:17.211Z,67.30
2019-04-16T14:58:50.176Z,65.98
2019-04-16T15:01:20.446Z,66.48
2019-04-16T15:03:50.757Z,66.81
2019-04-16T15:06:36.258Z,66.64
2019-04-16T15:09:11.414Z,67.67
2019-04-16T15:12:01.574Z,66.45
2019-04-16T15:14:49.200Z,65.50
2019-04-16T15:17:35.692Z,63.33
2019-04-16T15:20:15.708Z,62.47
2019-04-16T15:22:48.989Z,59.93
2019-04-16T15:25:25.155Z,58.42
2019-04-16T15:27:55.992Z,55.24
2019-04-16T15:30:41.436Z,57.15
2019-04-16T15:33:23.500Z,55.58
2019-04-16T15:35:56.477Z,55.19
2019-04-16T15:38:30.383Z,54.74
2019-04-16T15:41:17.659Z,52.99
2019-04-16T15:44:03.940Z,53.58
2019-04-16T15:46:52.111Z,52.99
2019-04-16T15:49:25.354Z,54.49
2019-04-16T15:52:04.668Z,54.48
2019-04-16T15:54:52.887Z,55.46
2019-04-16T15:57:41.070Z,56.64
2019-04-16T16:00:13.234Z,55.25
2019-04-16T16:02:52.523Z,56.27
2019-04-16T16:05:22.839Z,55.44
2019-04-16T16:07:56.064Z,55.60
2019-04-16T16:10:27.534Z,55.97
2019-04-16T16:12:56.099Z,55.87
2019-04-16T16:15:24.740Z,55.58
2019-04-16T16:17:53.416Z,55.05
2019-04-16T16:20:22.081Z,54.70
2019-04-16T16:22:50.638Z,54.59
2019-04-16T16:25:19.304Z,54.68
2019-04-16T16:27:48.011Z,52.66
2019-04-16T16:30:16.571Z,50.99
2019-04-16T16:32:45.106Z,50.26
2019-04-16T16:35:17.037Z,51.22
2019-04-16T16:37:44.160Z,51.74
2019-04-16T16:40:15.305Z,51.19
2019-04-16T16:42:43.257Z,51.04
2019-04-16T16:45:12.206Z,51.10
2019-04-16T16:47:40.849Z,52.47
2019-04-16T16:50:11.716Z,53.26
2019-04-16T16:52:42.126Z,55.17
2019-04-16T16:55:13.032Z,55.82
2019-04-16T16:57:46.354Z,56.50
2019-04-16T17:00:33.561Z,56.95
2019-04-16T17:03:10.046Z,56.69
2019-04-16T17:05:38.759Z,57.27
2019-04-16T17:08:07.337Z,58.13
2019-04-16T17:10:35.981Z,58.34
2019-04-16T17:13:04.636Z,59.90
2019-04-16T17:15:33.140Z,60.46
2019-04-16T17:18:01.628Z,59.90
2019-04-16T17:20:30.444Z,60.69
2019-04-16T17:22:59.080Z,60.44
2019-04-16T17:25:36.295Z,61.48
2019-04-16T17:27:57.906Z,62.04
2019-04-16T17:30:27.112Z,62.02
2019-04-16T17:32:55.748Z,61.75
2019-04-16T17:35:24.355Z,62.46
2019-04-16T17:37:52.858Z,62.62
2019-04-16T17:40:26.857Z,63.19
2019-04-16T17:43:13.923Z,66.12
2019-04-16T17:45:41.018Z,64.77
2019-04-16T17:48:18.050Z,64.28
2019-04-16T17:51:07.470Z,62.81
2019-04-16T17:53:46.624Z,63.53
2019-04-16T17:56:16.836Z,64.32
2019-04-16T17:58:49.610Z,65.40
2019-04-16T18:01:36.512Z,68.48
2019-04-16T18:04:10.435Z,68.33
2019-04-16T18:06:38.885Z,68.48
2019-04-16T18:09:15.528Z,68.66
2019-04-16T18:11:48.914Z,68.88
2019-04-16T18:14:35.354Z,68.94
2019-04-16T18:17:20.710Z,68.33
2019-04-16T18:20:06.311Z,67.59
2019-04-16T18:22:41.913Z,68.79
2019-04-16T18:25:25.931Z,68.89
2019-04-16T18:27:56.213Z,68.26
2019-04-16T18:30:42.829Z,67.23
2019-04-16T18:33:16.010Z,66.54
2019-04-16T18:36:02.378Z,65.09
2019-04-16T18:38:48.016Z,64.10
2019-04-16T18:41:33.691Z,63.42
2019-04-16T18:44:06.855Z,62.56
2019-04-16T18:46:36.994Z,61.83
2019-04-16T18:49:07.511Z,61.49
2019-04-16T18:51:36.001Z,61.69
2019-04-16T18:54:04.653Z,61.34
2019-04-16T18:56:33.521Z,60.97
2019-04-16T18:59:02.097Z,60.80
2019-04-16T19:01:33.381Z,59.86
2019-04-16T19:04:02.162Z,60.07
2019-04-16T19:06:30.802Z,60.51
2019-04-16T19:08:59.972Z,60.75
2019-04-16T19:11:28.638Z,60.94
2019-04-16T19:13:57.365Z,60.27
2019-04-16T19:16:25.963Z,60.38
2019-04-16T19:18:54.567Z,60.35
2019-04-16T19:21:23.199Z,59.86
2019-04-16T19:23:52.448Z,59.92
2019-04-16T19:26:21.191Z,58.97
2019-04-16T19:28:49.688Z,59.22
2019-04-16T19:31:22.784Z,58.74
2019-04-16T19:33:48.612Z,58.54
2019-04-16T19:36:19.738Z,58.02
2019-04-16T19:38:47.472Z,58.31
2019-04-16T19:41:16.156Z,58.33
2019-04-16T19:43:44.869Z,58.41
2019-04-16T19:46:15.571Z,57.53
2019-04-16T19:48:43.832Z,57.38
2019-04-16T19:51:12.460Z,57.60
2019-04-16T19:53:41.017Z,56.93
2019-04-16T19:56:09.676Z,56.13
2019-04-16T19:58:38.384Z,56.65
2019-04-16T20:01:07.079Z,55.55
2019-04-16T20:03:35.677Z,54.65
2019-04-16T20:06:04.351Z,54.93
2019-04-16T20:08:36.745Z,55.36
2019-04-16T20:11:03.383Z,55.02
2019-04-16T20:13:32.012Z,54.73
2019-04-16T20:16:01.101Z,54.00
2019-04-16T20:18:29.735Z,53.91
2019-04-16T20:21:01.075Z,52.75
2019-04-16T20:23:29.307Z,52.55
2019-04-16T20:26:00.384Z,52.63
2019-04-16T20:28:28.184Z,52.80
2019-04-16T20:31:01.439Z,52.86
2019-04-16T20:33:27.067Z,52.27
2019-04-16T20:35:55.696Z,52.64
2019-04-16T20:38:29.047Z,52.37
2019-04-16T20:40:54.581Z,51.84
2019-04-16T20:43:23.209Z,51.77
2019-04-16T20:45:51.834Z,52.16
2019-04-16T20:48:20.509Z,52.44
2019-04-16T20:50:52.689Z,52.71
2019-04-16T20:53:19.360Z,53.23
2019-04-16T20:55:48.205Z,52.67
2019-04-16T20:58:16.905Z,52.78
2019-04-16T21:00:50.113Z,52.59
2019-04-16T21:03:22.322Z,53.06
2019-04-16T21:05:57.748Z,53.08
2019-04-16T21:08:24.404Z,52.90
2019-04-16T21:10:49.894Z,52.82
2019-04-16T21:13:18.388Z,52.68
2019-04-16T21:15:46.876Z,52.47
2019-04-16T21:18:15.537Z,52.44
2019-04-16T21:20:44.186Z,52.95
2019-04-16T21:23:12.740Z,52.50
2019-04-16T21:25:42.869Z,52.85
2019-04-16T21:28:19.270Z,52.62
2019-04-16T21:30:49.441Z,52.69
2019-04-16T21:33:22.379Z,52.29
2019-04-16T21:35:55.912Z,52.03
2019-04-16T21:38:29.049Z,51.66
2019-04-16T21:40:57.847Z,51.93
2019-04-16T21:43:26.589Z,52.51
2019-04-16T21:45:55.225Z,52.14
2019-04-16T21:48:26.417Z,52.57
2019-04-16T21:50:54.304Z,52.71
2019-04-16T21:53:24.628Z,52.58
2019-04-16T21:55:53.399Z,52.70
2019-04-16T21:58:21.923Z,52.79
2019-04-16T22:00:52.269Z,53.23
2019-04-16T22:03:22.639Z,53.67
2019-04-16T22:05:51.260Z,53.90
2019-04-16T22:08:19.890Z,53.90
2019-04-16T22:10:48.549Z,53.46
2019-04-16T22:13:19.350Z,53.39
2019-04-16T22:15:47.315Z,53.75
2019-04-16T22:18:15.993Z,53.38
2019-04-16T22:20:44.617Z,53.68
2019-04-16T22:23:16.184Z,53.89
2019-04-16T22:25:43.437Z,53.82
2019-04-16T22:28:12.988Z,53.40
2019-04-16T22:30:41.760Z,53.21
2019-04-16T22:33:10.463Z,53.70
2019-04-16T22:35:39.037Z,53.43
2019-04-16T22:38:12.764Z,53.81
2019-04-16T22:40:42.365Z,54.00
2019-04-16T22:43:14.901Z,54.49
2019-04-16T22:45:47.541Z,54.14
2019-04-16T22:48:17.168Z,53.81
2019-04-16T22:50:45.799Z,54.31
2019-04-16T22:53:17.120Z,54.06
2019-04-16T22:55:44.540Z,53.33
2019-04-16T22:58:26.722Z,52.95
2019-04-16T23:00:57.585Z,53.19
2019-04-16T23:03:26.280Z,53.02
2019-04-16T23:05:54.806Z,53.54
2019-04-16T23:08:23.428Z,53.56
2019-04-16T23:10:52.233Z,53.06
2019-04-16T23:13:20.882Z,53.17
2019-04-16T23:15:49.370Z,53.52
2019-04-16T23:18:18.365Z,53.53
2019-04-16T23:20:47.037Z,53.39
2019-04-16T23:23:18.469Z,53.53
2019-04-16T23:25:45.995Z,53.67
2019-04-16T23:28:14.668Z,53.29
2019-04-16T23:30:43.164Z,54.18
2019-04-16T23:33:11.786Z,53.85
2019-04-16T23:35:44.356Z,54.20
2019-04-16T23:38:10.703Z,54.36
2019-04-16T23:40:40.814Z,53.78
2019-04-16T23:43:21.910Z,53.40
2019-04-16T23:46:08.697Z,53.06
2019-04-16T23:48:51.047Z,52.93
2019-04-16T23:51:28.691Z,52.69
2019-04-16T23:53:58.798Z,53.46
2019-04-16T23:56:45.894Z,53.23
2019-04-16T23:59:18.505Z,53.18
